Time;durP1;ratioP1;P1;durP2;ratioP2;P2;SDS_P1;SDS_P2;PMS_P1;PMS_P2;Temp;Humidity;BMP_temperature;BMP_pressure;BME280_temperature;BME280_humidity;BME280_pressure;Samples;Min_cycle;Max_cycle;Signal;HPM_P1;HPM_P2
2022/01/11 00:01:54;;;;;;;72.60;21.08;;;;;;;-0.51;98.55;103042.84;5078237;28;20044;-69
2022/01/11 00:04:21;;;;;;;86.30;22.65;;;;;;;-0.48;98.46;103043.16;5094582;28;20016;-70
2022/01/11 00:06:49;;;;;;;75.22;21.50;;;;;;;-0.48;97.99;103049.16;5091117;28;20016;-69
2022/01/11 00:09:30;;;;;;;76.20;23.13;;;;;;;-0.48;98.02;103050.84;5084019;28;20202;-69
2022/01/11 00:11:56;;;;;;;72.43;21.35;;;;;;;-0.47;98.40;103056.13;5094920;28;20032;-70
2022/01/11 00:14:21;;;;;;;72.97;21.98;;;;;;;-0.45;98.15;103058.84;5089848;28;20031;-70
2022/01/11 00:16:46;;;;;;;68.63;20.80;;;;;;;-0.42;97.55;103069.41;5079900;28;20024;-69
2022/01/11 00:19:13;;;;;;;73.20;20.70;;;;;;;-0.39;97.85;103074.84;5092049;28;20024;-69
2022/01/11 00:21:45;;;;;;;74.20;20.20;;;;;;;-0.39;97.51;103077.38;5095001;28;20027;-70
2022/01/11 00:24:30;;;;;;;75.85;19.80;;;;;;;-0.41;97.66;103082.34;5106158;28;20285;-70
2022/01/11 00:26:56;;;;;;;73.75;20.65;;;;;;;-0.43;98.29;103073.63;5092208;28;20023;-70
2022/01/11 00:29:22;;;;;;;82.65;22.40;;;;;;;-0.42;97.73;103075.44;5078171;28;20342;-70
2022/01/11 00:31:48;;;;;;;77.53;21.13;;;;;;;-0.41;98.36;103071.22;5089413;28;20027;-69
2022/01/11 00:34:16;;;;;;;76.57;20.77;;;;;;;-0.42;97.41;103074.50;5083773;28;20139;-70
2022/01/11 00:36:42;;;;;;;88.55;21.92;;;;;;;-0.42;97.49;103074.50;5076904;28;20032;-69
2022/01/11 00:39:09;;;;;;;85.93;22.55;;;;;;;-0.44;97.88;103070.91;5071427;28;20039;-70
2022/01/11 00:41:37;;;;;;;70.22;21.35;;;;;;;-0.46;98.50;103077.53;5090877;28;20035;-70
2022/01/11 00:44:03;;;;;;;81.85;22.60;;;;;;;-0.49;98.55;103072.06;5104285;28;20023;-70
2022/01/11 00:46:29;;;;;;;88.35;23.08;;;;;;;-0.50;98.50;103060.03;5095537;28;20172;-70
2022/01/11 00:48:54;;;;;;;86.60;22.67;;;;;;;-0.51;98.33;103058.22;5085013;28;20036;-70
2022/01/11 00:51:19;;;;;;;81.32;23.15;;;;;;;-0.51;98.39;103061.66;5093197;28;20020;-70
2022/01/11 00:53:45;;;;;;;89.85;23.55;;;;;;;-0.54;98.93;103059.72;5078340;28;20031;-70
2022/01/11 00:56:10;;;;;;;88.72;23.42;;;;;;;-0.53;98.61;103061.50;5086535;28;20044;-70
2022/01/11 00:58:35;;;;;;;88.85;22.98;;;;;;;-0.51;98.89;103058.22;5069888;28;20090;-70
2022/01/11 01:01:01;;;;;;;90.38;22.70;;;;;;;-0.50;98.61;103052.34;5085174;28;20058;-70
2022/01/11 01:03:27;;;;;;;91.40;22.92;;;;;;;-0.48;98.74;103063.66;5092299;28;20017;-70
2022/01/11 01:05:53;;;;;;;91.38;23.13;;;;;;;-0.49;99.52;103064.38;5066804;28;20031;-70
2022/01/11 01:08:19;;;;;;;96.40;25.25;;;;;;;-0.48;99.11;103072.22;5072370;28;20036;-70
2022/01/11 01:10:47;;;;;;;94.75;23.20;;;;;;;-0.48;98.79;103068.75;5085320;28;20057;-70
2022/01/11 01:13:17;;;;;;;97.32;23.00;;;;;;;-0.47;99.14;103075.72;5068692;28;20024;-70
2022/01/11 01:15:46;;;;;;;88.60;24.00;;;;;;;-0.46;98.83;103080.09;5088279;28;20009;-70
2022/01/11 01:18:14;;;;;;;99.43;24.45;;;;;;;-0.46;99.25;103072.41;5096544;28;20015;-70
2022/01/11 01:20:40;;;;;;;90.40;22.90;;;;;;;-0.47;99.31;103068.03;5103923;28;20012;-69
2022/01/11 01:23:05;;;;;;;86.15;21.40;;;;;;;-0.48;99.29;103072.22;5093014;28;20062;-69
2022/01/11 01:25:31;;;;;;;89.20;22.70;;;;;;;-0.47;98.60;103073.16;5103913;28;20222;-69
2022/01/11 01:27:56;;;;;;;89.40;23.25;;;;;;;-0.47;98.83;103071.47;5090373;28;20039;-69
2022/01/11 01:30:22;;;;;;;88.25;23.10;;;;;;;-0.45;99.26;103066.53;5088941;28;20016;-70
2022/01/11 01:32:49;;;;;;;94.40;24.27;;;;;;;-0.44;99.04;103076.03;5093694;28;20032;-70
2022/01/11 01:35:15;;;;;;;95.07;22.63;;;;;;;-0.44;98.73;103076.91;5090266;28;20103;-70
2022/01/11 01:37:41;;;;;;;98.35;24.42;;;;;;;-0.41;98.92;103076.34;5069651;28;20171;-70
2022/01/11 01:40:08;;;;;;;102.78;24.00;;;;;;;-0.41;99.12;103066.09;5085237;28;20079;-70
2022/01/11 01:42:35;;;;;;;91.80;23.00;;;;;;;-0.41;99.19;103072.13;5102894;28;20020;-70
2022/01/11 01:45:02;;;;;;;90.63;22.83;;;;;;;-0.42;98.71;103078.00;5107737;28;20266;-70
2022/01/11 01:47:28;;;;;;;97.97;23.65;;;;;;;-0.41;99.01;103077.22;5092231;28;20028;-70
2022/01/11 01:49:54;;;;;;;95.50;23.00;;;;;;;-0.39;98.21;103077.38;5107746;28;20156;-70
2022/01/11 01:52:19;;;;;;;101.53;24.98;;;;;;;-0.39;98.54;103070.63;5105011;28;20031;-70
2022/01/11 01:54:45;;;;;;;91.13;22.85;;;;;;;-0.37;98.23;103073.34;5083546;28;20023;-70
2022/01/11 02:00:12;;;;;;;88.13;23.60;;;;;;;-0.33;98.15;103078.06;5079535;28;20250;-70
2022/01/11 02:02:39;;;;;;;91.93;22.55;;;;;;;-0.33;98.06;103078.06;5094556;28;20023;-69
2022/01/11 02:05:06;;;;;;;91.90;24.27;;;;;;;-0.31;98.15;103083.34;5086205;28;20032;-69
2022/01/11 02:07:35;;;;;;;103.65;25.05;;;;;;;-0.32;97.80;103079.84;5085399;28;20194;-69
2022/01/11 02:10:03;;;;;;;97.53;23.92;;;;;;;-0.30;98.24;103087.72;5092779;28;20028;-69
2022/01/11 02:12:29;;;;;;;88.43;22.58;;;;;;;-0.30;97.60;103092.84;5082915;28;20020;-70
2022/01/11 02:14:54;;;;;;;98.15;23.55;;;;;;;-0.34;98.26;103089.03;5087018;28;20012;-70
2022/01/11 02:17:19;;;;;;;90.53;24.20;;;;;;;-0.33;97.57;103090.84;5076411;28;20161;-69
2022/01/11 02:19:45;;;;;;;91.70;22.67;;;;;;;-0.33;97.99;103090.84;5095820;28;20018;-69
2022/01/11 02:22:10;;;;;;;94.97;24.40;;;;;;;-0.38;97.43;103092.03;5092016;28;20032;-69
2022/01/11 02:24:36;;;;;;;89.00;21.95;;;;;;;-0.42;97.51;103095.00;5106903;28;20171;-69
2022/01/11 02:27:01;;;;;;;95.70;25.90;;;;;;;-0.44;98.09;103099.06;5082885;28;20028;-70
2022/01/11 02:29:29;;;;;;;96.35;24.00;;;;;;;-0.47;98.09;103101.31;5106978;28;20019;-69
2022/01/11 02:31:55;;;;;;;89.97;22.73;;;;;;;-0.50;98.00;103104.47;5093430;28;20031;-69
2022/01/11 02:34:21;;;;;;;91.88;22.80;;;;;;;-0.50;97.96;103109.56;5088480;28;20020;-69
2022/01/11 02:36:46;;;;;;;91.38;24.38;;;;;;;-0.50;98.55;103106.13;5074174;28;20183;-70
2022/01/11 02:39:11;;;;;;;92.72;24.13;;;;;;;-0.49;97.70;103110.47;5102630;28;20221;-69
2022/01/11 02:41:48;;;;;;;95.43;25.10;;;;;;;-0.48;98.00;103114.84;5075893;28;20028;-69
2022/01/11 02:44:13;;;;;;;90.05;23.20;;;;;;;-0.49;97.92;103113.03;5080728;28;20024;-69
2022/01/11 02:46:38;;;;;;;89.78;23.33;;;;;;;-0.49;97.74;103124.22;5083794;28;20048;-70
2022/01/11 02:49:04;;;;;;;89.57;23.90;;;;;;;-0.51;97.88;103127.34;5079300;28;20081;-69
2022/01/11 02:51:29;;;;;;;100.00;25.15;;;;;;;-0.55;98.27;103121.91;5100563;28;20016;-70
2022/01/11 02:53:56;;;;;;;91.40;23.40;;;;;;;-0.56;97.74;103132.88;5079455;28;20083;-70
2022/01/11 02:56:22;;;;;;;93.00;22.90;;;;;;;-0.54;98.60;103130.47;5089238;28;20029;-69
2022/01/11 02:58:48;;;;;;;95.55;23.38;;;;;;;-0.55;98.45;103126.09;5084648;28;20047;-69
2022/01/11 03:01:13;;;;;;;93.57;22.92;;;;;;;-0.55;97.73;103133.78;5079210;28;20251;-69
2022/01/11 03:03:39;;;;;;;91.57;23.00;;;;;;;-0.54;97.96;103135.59;5102962;28;20133;-69
2022/01/11 03:06:05;;;;;;;90.78;22.95;;;;;;;-0.56;97.58;103140.56;5093316;28;20020;-70
2022/01/11 03:08:39;;;;;;;88.50;21.75;;;;;;;-0.57;97.01;103137.84;5079688;28;20064;-69
2022/01/11 03:11:06;;;;;;;82.45;22.25;;;;;;;-0.61;97.21;103136.63;5092617;28;20017;-69
2022/01/11 03:13:35;;;;;;;85.50;22.23;;;;;;;-0.65;96.80;103126.81;5088042;28;20041;-69
2022/01/11 03:16:00;;;;;;;101.85;24.15;;;;;;;-0.68;97.72;103128.13;5074482;28;20055;-70
2022/01/11 03:18:25;;;;;;;85.20;22.00;;;;;;;-0.69;97.34;103128.88;5074094;28;20028;-69
2022/01/11 03:20:53;;;;;;;95.97;23.83;;;;;;;-0.70;97.67;103133.06;5084677;28;20016;-69
2022/01/11 03:23:18;;;;;;;93.50;23.15;;;;;;;-0.69;97.06;103134.00;5100014;28;20020;-69
2022/01/11 03:25:45;;;;;;;86.88;22.77;;;;;;;-0.70;97.08;103138.19;5086072;28;20099;-69
2022/01/11 03:28:10;;;;;;;91.07;23.20;;;;;;;-0.69;97.55;103134.91;5086785;28;20170;-69
2022/01/11 03:30:35;;;;;;;88.38;24.00;;;;;;;-0.71;97.15;103132.19;5082748;28;20025;-69
2022/01/11 03:33:02;;;;;;;81.55;22.55;;;;;;;-0.71;97.33;103131.25;5081730;28;20086;-70
2022/01/11 03:35:29;;;;;;;87.97;22.75;;;;;;;-0.74;96.94;103123.25;5098495;28;20016;-69
2022/01/11 03:37:55;;;;;;;100.40;25.27;;;;;;;-0.76;97.23;103127.31;5076135;28;20024;-70
2022/01/11 03:40:24;;;;;;;84.20;24.73;;;;;;;-0.80;97.97;103117.50;5082102;28;20043;-69
2022/01/11 03:42:50;;;;;;;98.10;23.95;;;;;;;-0.80;97.52;103125.16;5086393;28;20032;-69
2022/01/11 03:45:16;;;;;;;91.68;25.02;;;;;;;-0.82;97.52;103116.44;5092920;28;20273;-69
2022/01/11 03:47:42;;;;;;;90.13;23.33;;;;;;;-0.82;97.98;103119.88;5084778;28;20106;-69
2022/01/11 03:50:10;;;;;;;95.78;23.65;;;;;;;-0.83;97.54;103122.28;5082995;28;20032;-69
2022/01/11 03:52:37;;;;;;;93.97;23.17;;;;;;;-0.83;98.11;103119.72;5085150;28;20028;-69
2022/01/11 03:55:09;;;;;;;95.35;24.92;;;;;;;-0.84;97.42;103123.94;5080526;28;20032;-69
2022/01/11 03:57:35;;;;;;;75.35;22.25;;;;;;;-0.82;97.52;103129.22;5082270;28;20062;-69
2022/01/11 04:00:06;;;;;;;82.13;23.08;;;;;;;-0.83;98.02;103133.41;5079006;28;20268;-69
2022/01/11 04:02:31;;;;;;;94.53;24.00;;;;;;;-0.83;97.62;103127.41;5085943;28;20427;-69
2022/01/11 04:04:57;;;;;;;88.32;22.27;;;;;;;-0.84;97.24;103131.63;5079891;28;20051;-69
2022/01/11 04:07:25;;;;;;;94.78;22.98;;;;;;;-0.85;96.86;103129.81;5076086;28;20271;-69
2022/01/11 04:09:52;;;;;;;90.22;22.98;;;;;;;-0.85;97.59;103136.56;5084062;28;20036;-69
2022/01/11 04:12:20;;;;;;;93.18;24.00;;;;;;;-0.88;97.63;103138.06;5083498;28;20152;-69
2022/01/11 04:14:45;;;;;;;93.90;23.40;;;;;;;-0.86;97.48;103139.88;5083389;28;20051;-70
2022/01/11 04:17:11;;;;;;;81.55;23.05;;;;;;;-0.86;97.00;103143.34;5082038;28;20025;-69
2022/01/11 04:19:37;;;;;;;85.32;23.25;;;;;;;-0.85;97.04;103142.59;5087777;28;20027;-69
2022/01/11 04:22:03;;;;;;;85.85;23.17;;;;;;;-0.84;97.45;103134.19;5074262;28;20079;-69
2022/01/11 04:24:29;;;;;;;88.13;23.55;;;;;;;-0.83;97.99;103138.53;5085534;28;20016;-69
2022/01/11 04:26:54;;;;;;;94.85;25.90;;;;;;;-0.82;97.48;103142.03;5084138;28;20055;-69
2022/01/11 04:29:20;;;;;;;87.65;22.90;;;;;;;-0.82;97.53;103136.91;5081292;28;20028;-69
2022/01/11 04:31:45;;;;;;;87.15;23.17;;;;;;;-0.81;97.47;103142.19;5075763;28;20051;-69
2022/01/11 04:34:11;;;;;;;81.80;23.27;;;;;;;-0.79;97.12;103150.94;5085729;28;20074;-70
2022/01/11 04:36:37;;;;;;;85.10;23.23;;;;;;;-0.77;97.33;103157.13;5078906;28;20004;-69
2022/01/11 04:39:05;;;;;;;85.50;23.42;;;;;;;-0.78;97.03;103147.63;5077468;28;20019;-69
2022/01/11 04:41:30;;;;;;;84.50;23.77;;;;;;;-0.79;97.32;103157.72;5079229;28;20013;-69
2022/01/11 04:43:55;;;;;;;86.88;23.83;;;;;;;-0.79;96.92;103155.16;5084958;28;20044;-70
2022/01/11 04:46:21;;;;;;;91.57;24.65;;;;;;;-0.79;97.01;103155.16;5079921;28;20012;-69
2022/01/11 04:48:46;;;;;;;86.88;25.25;;;;;;;-0.80;97.16;103155.88;5086503;28;20027;-70
2022/01/11 04:51:12;;;;;;;91.25;23.48;;;;;;;-0.79;96.64;103152.59;5079782;28;20259;-69
2022/01/11 04:53:37;;;;;;;95.35;25.73;;;;;;;-0.79;96.68;103150.03;5083729;28;20023;-69
2022/01/11 04:56:03;;;;;;;89.65;24.13;;;;;;;-0.80;97.07;103148.19;5084023;28;20066;-70
2022/01/11 04:58:28;;;;;;;92.95;24.33;;;;;;;-0.81;96.40;103143.81;5077747;28;20020;-70
2022/01/11 05:00:53;;;;;;;85.22;24.33;;;;;;;-0.83;97.02;103140.19;5084057;28;20051;-69
2022/01/11 05:03:19;;;;;;;97.20;27.00;;;;;;;-0.86;96.77;103138.22;5083440;28;20043;-70
2022/01/11 05:05:46;;;;;;;86.93;25.10;;;;;;;-0.89;97.10;103138.78;5081671;28;20035;-69
2022/01/11 05:08:12;;;;;;;93.85;25.27;;;;;;;-0.91;96.73;103147.06;5074296;28;20278;-69
2022/01/11 05:10:42;;;;;;;93.15;25.20;;;;;;;-0.91;97.16;103147.06;5083056;28;20035;-70
2022/01/11 05:13:10;;;;;;;92.22;25.05;;;;;;;-0.90;97.34;103144.69;5082753;28;20062;-70
2022/01/11 05:15:35;;;;;;;92.38;24.60;;;;;;;-0.88;97.35;103144.84;5084068;28;20027;-69
2022/01/11 05:18:00;;;;;;;95.47;25.85;;;;;;;-0.88;97.05;103143.16;5086376;28;20035;-69
2022/01/11 05:20:26;;;;;;;97.35;24.67;;;;;;;-0.88;96.74;103137.16;5100188;28;20012;-70
2022/01/11 05:22:51;;;;;;;101.38;27.60;;;;;;;-0.88;96.07;103143.16;5083655;28;20024;-69
2022/01/11 05:25:17;;;;;;;103.72;25.95;;;;;;;-0.92;96.92;103133.34;5103775;28;20016;-69
2022/01/11 05:27:43;;;;;;;93.90;24.95;;;;;;;-0.95;96.88;103135.59;5079639;28;20152;-70
2022/01/11 05:30:09;;;;;;;96.75;25.60;;;;;;;-0.94;96.36;103134.84;5090164;28;20209;-69
2022/01/11 05:32:35;;;;;;;99.07;26.80;;;;;;;-0.95;96.97;103130.47;5083125;28;20024;-69
2022/01/11 05:35:03;;;;;;;97.93;26.73;;;;;;;-0.92;96.23;103127.34;5088470;28;20167;-69
2022/01/11 05:37:29;;;;;;;107.65;25.95;;;;;;;-0.91;96.82;103135.19;5080913;28;20055;-70
2022/01/11 05:39:54;;;;;;;118.30;28.88;;;;;;;-0.91;96.18;103135.19;5082680;28;20028;-70
2022/01/11 05:42:20;;;;;;;103.95;27.60;;;;;;;-0.90;96.69;103134.44;5084062;28;20020;-70
2022/01/11 05:44:46;;;;;;;103.55;27.67;;;;;;;-0.89;96.55;103141.34;5075848;28;20024;-70
2022/01/11 05:47:11;;;;;;;104.47;27.90;;;;;;;-0.88;96.54;103143.16;5087356;28;20297;-70
2022/01/11 05:49:36;;;;;;;119.53;27.52;;;;;;;-0.86;96.27;103150.13;5075129;28;20020;-70
2022/01/11 05:52:02;;;;;;;110.35;27.75;;;;;;;-0.89;96.06;103140.44;5088096;28;20177;-70
2022/01/11 05:54:28;;;;;;;113.05;28.52;;;;;;;-0.86;95.89;103140.78;5082911;28;20023;-70
2022/01/11 05:56:53;;;;;;;106.30;28.50;;;;;;;-0.86;95.40;103145.00;5080093;28;20023;-70
2022/01/11 05:59:18;;;;;;;96.93;25.58;;;;;;;-0.87;95.46;103146.63;5074549;28;20024;-70
2022/01/11 06:01:44;;;;;;;125.85;27.88;;;;;;;-0.86;95.88;103155.22;5086016;28;20079;-70
2022/01/11 06:04:09;;;;;;;102.70;25.95;;;;;;;-0.88;95.90;103158.53;5074558;28;20344;-70
2022/01/11 06:06:34;;;;;;;98.68;27.02;;;;;;;-0.86;95.30;103166.38;5079114;28;20080;-70
2022/01/11 06:09:02;;;;;;;95.85;26.88;;;;;;;-0.84;95.59;103174.22;5079656;28;20332;-69
2022/01/11 06:11:27;;;;;;;96.47;25.98;;;;;;;-0.86;95.18;103170.59;5078110;28;20074;-70
2022/01/11 06:13:53;;;;;;;92.85;25.58;;;;;;;-0.85;95.49;103185.19;5067258;28;20021;-70
2022/01/11 06:16:20;;;;;;;98.30;25.35;;;;;;;-0.85;94.98;103187.75;5083329;28;20024;-70
2022/01/11 06:18:46;;;;;;;93.43;25.13;;;;;;;-0.84;95.87;103194.69;5088977;28;20016;-70
2022/01/11 06:21:11;;;;;;;99.47;25.98;;;;;;;-0.84;95.82;103195.63;5098878;28;20012;-70
2022/01/11 06:23:37;;;;;;;95.90;25.52;;;;;;;-0.83;95.07;103201.63;5088503;28;20077;-70
2022/01/11 06:26:02;;;;;;;98.45;25.23;;;;;;;-0.83;95.06;103202.53;5087137;28;20032;-70
2022/01/11 06:28:27;;;;;;;94.20;25.15;;;;;;;-0.84;95.09;103204.91;5081690;28;20024;-70
2022/01/11 06:30:53;;;;;;;94.07;24.55;;;;;;;-0.84;94.95;103202.38;5084222;28;20222;-70
2022/01/11 06:33:18;;;;;;;99.28;24.25;;;;;;;-0.85;94.57;103213.34;5088682;28;20080;-70
2022/01/11 06:35:43;;;;;;;96.95;24.83;;;;;;;-0.84;94.68;103213.53;5079467;28;20065;-70
2022/01/11 06:38:09;;;;;;;97.13;25.50;;;;;;;-0.84;94.96;103207.47;5078992;28;20376;-70
2022/01/11 06:40:34;;;;;;;94.00;24.63;;;;;;;-0.85;95.02;103213.34;5090204;28;20058;-70
2022/01/11 06:42:59;;;;;;;93.63;25.27;;;;;;;-0.86;94.37;103206.41;5081761;28;20019;-70
2022/01/11 06:45:25;;;;;;;85.78;22.98;;;;;;;-0.86;94.21;103216.66;5075701;28;20182;-70
2022/01/11 06:47:51;;;;;;;93.28;26.45;;;;;;;-0.88;94.55;103217.38;5086927;28;20175;-70
2022/01/11 06:50:17;;;;;;;103.55;26.27;;;;;;;-0.90;94.84;103216.34;5085194;28;20021;-70
2022/01/11 06:52:42;;;;;;;102.22;26.15;;;;;;;-0.88;95.34;103219.06;5078606;28;20035;-70
2022/01/11 06:55:09;;;;;;;93.45;25.67;;;;;;;-0.90;94.99;103218.88;5079912;28;20025;-70
2022/01/11 06:57:35;;;;;;;102.18;26.48;;;;;;;-0.89;94.86;103223.25;5085801;28;20020;-70
2022/01/11 07:00:00;;;;;;;91.50;26.80;;;;;;;-0.90;94.92;103217.97;5082042;28;20024;-70
2022/01/11 07:02:26;;;;;;;99.45;26.33;;;;;;;-0.89;94.80;103212.09;5078084;28;20298;-70
2022/01/11 07:04:51;;;;;;;91.28;24.55;;;;;;;-0.93;94.66;103208.31;5084686;28;20267;-70
2022/01/11 07:07:16;;;;;;;102.50;25.13;;;;;;;-0.92;95.12;103216.91;5088742;28;20323;-70
2022/01/11 07:09:42;;;;;;;100.75;27.48;;;;;;;-0.92;94.63;103222.91;5105931;28;20270;-70
2022/01/11 07:12:08;;;;;;;99.18;25.85;;;;;;;-0.93;94.93;103228.81;5083818;28;20183;-70
2022/01/11 07:14:34;;;;;;;93.55;25.70;;;;;;;-0.95;94.40;103222.59;5090742;28;20023;-70
2022/01/11 07:16:59;;;;;;;82.43;23.30;;;;;;;-0.94;94.49;103237.22;5077953;28;20047;-70
2022/01/11 07:19:24;;;;;;;99.60;25.80;;;;;;;-0.96;94.56;103233.56;5085760;28;20069;-70
2022/01/11 07:21:50;;;;;;;97.32;26.00;;;;;;;-0.96;94.59;103231.00;5092944;28;20036;-70
2022/01/11 07:24:17;;;;;;;94.95;25.85;;;;;;;-0.98;94.41;103247.84;5093292;28;20070;-70
2022/01/11 07:26:43;;;;;;;91.40;25.08;;;;;;;-0.97;94.69;103248.75;5078808;28;20031;-70
2022/01/11 07:29:09;;;;;;;86.72;24.42;;;;;;;-1.00;94.51;103258.66;5084680;28;20091;-70
2022/01/11 07:31:37;;;;;;;93.90;26.05;;;;;;;-1.00;94.56;103253.53;5083374;28;20025;-70
2022/01/11 07:34:03;;;;;;;97.10;26.02;;;;;;;-0.98;94.72;103258.09;5074079;28;20032;-70
2022/01/11 07:36:28;;;;;;;87.25;26.15;;;;;;;-1.00;94.76;103258.66;5078174;28;20047;-70
2022/01/11 07:38:54;;;;;;;94.40;25.55;;;;;;;-1.01;94.71;103256.81;5084888;28;20040;-70
2022/01/11 07:41:19;;;;;;;96.78;26.08;;;;;;;-1.02;94.33;103263.59;5084721;28;20271;-70
2022/01/11 07:43:44;;;;;;;88.05;24.25;;;;;;;-1.03;94.42;103269.44;5087640;28;20020;-70
2022/01/11 07:46:10;;;;;;;96.57;25.80;;;;;;;-1.02;94.70;103270.38;5086729;28;20042;-70
2022/01/11 07:48:35;;;;;;;92.63;27.17;;;;;;;-1.03;95.06;103266.91;5085078;28;20023;-70
2022/01/11 07:51:01;;;;;;;92.65;26.35;;;;;;;-1.01;94.27;103273.09;5082667;28;20043;-70
2022/01/11 07:53:26;;;;;;;86.63;26.25;;;;;;;-1.00;94.70;103279.13;5087133;28;20024;-70
2022/01/11 07:55:51;;;;;;;94.82;25.55;;;;;;;-0.98;94.34;103276.00;5088667;28;20230;-70
2022/01/11 07:58:17;;;;;;;89.97;25.23;;;;;;;-0.94;95.07;103279.78;5084329;28;20172;-70
2022/01/11 08:00:42;;;;;;;87.90;26.50;;;;;;;-0.92;94.38;103274.09;5087626;28;20024;-70
2022/01/11 08:03:08;;;;;;;84.95;25.67;;;;;;;-0.89;94.07;103270.97;5091100;28;20048;-70
2022/01/11 08:05:33;;;;;;;88.15;24.90;;;;;;;-0.84;94.36;103272.41;5081336;28;20048;-70
2022/01/11 08:07:59;;;;;;;82.05;23.33;;;;;;;-0.77;94.52;103271.41;5078598;28;20112;-70
2022/01/11 08:10:24;;;;;;;83.60;23.85;;;;;;;-0.71;94.22;103270.41;5082047;28;20017;-70
2022/01/11 08:12:50;;;;;;;85.93;24.55;;;;;;;-0.65;94.13;103271.81;5081361;28;20036;-70
2022/01/11 08:15:15;;;;;;;83.97;22.48;;;;;;;-0.62;94.33;103275.63;5086440;28;20058;-70
2022/01/11 08:17:40;;;;;;;79.78;23.48;;;;;;;-0.59;94.02;103268.28;5085609;28;20024;-70
2022/01/11 08:20:07;;;;;;;77.05;23.95;;;;;;;-0.56;93.83;103271.16;5087165;28;20004;-70
2022/01/11 08:22:32;;;;;;;81.47;24.63;;;;;;;-0.51;93.68;103273.31;5078067;28;20040;-70
2022/01/11 08:24:57;;;;;;;82.63;24.58;;;;;;;-0.46;94.26;103272.16;5087347;28;20020;-70
2022/01/11 08:27:22;;;;;;;81.05;24.25;;;;;;;-0.42;93.96;103280.34;5081213;28;20246;-70
2022/01/11 08:29:49;;;;;;;70.13;20.67;;;;;;;-0.33;93.26;103285.53;5088181;28;20021;-70
2022/01/11 08:32:15;;;;;;;75.22;23.60;;;;;;;-0.25;93.89;103269.31;5077562;28;20021;-70
2022/01/11 08:34:41;;;;;;;75.25;22.25;;;;;;;-0.17;92.79;103275.28;5083296;28;20024;-70
2022/01/11 08:37:06;;;;;;;75.95;21.83;;;;;;;-0.11;93.13;103272.47;5079572;28;20017;-70
2022/01/11 08:39:32;;;;;;;64.75;21.77;;;;;;;-0.04;92.87;103274.94;5071053;28;20043;-70
2022/01/11 08:41:57;;;;;;;86.85;23.45;;;;;;;0.05;93.12;103275.88;5077322;28;20028;-70
2022/01/11 08:44:24;;;;;;;81.22;23.13;;;;;;;0.12;92.33;103282.56;5069585;28;20028;-70
2022/01/11 08:46:50;;;;;;;67.97;21.27;;;;;;;0.16;91.22;103277.03;5086235;28;20027;-70
2022/01/11 08:49:16;;;;;;;70.75;21.40;;;;;;;0.17;91.55;103272.06;5078056;28;20028;-70
2022/01/11 08:51:41;;;;;;;69.63;22.08;;;;;;;0.27;92.23;103283.28;5076292;28;20033;-70
2022/01/11 08:54:08;;;;;;;68.53;19.88;;;;;;;0.36;91.33;103283.31;5087594;28;20117;-70
2022/01/11 08:56:33;;;;;;;61.75;19.95;;;;;;;0.46;90.57;103286.09;5075099;28;20024;-70
2022/01/11 08:58:59;;;;;;;69.15;21.33;;;;;;;0.55;90.58;103279.38;5100570;28;20023;-70
2022/01/11 09:01:31;;;;;;;64.35;20.23;;;;;;;0.61;89.81;103280.00;5078955;28;20246;-69
2022/01/11 09:03:56;;;;;;;63.38;20.77;;;;;;;0.62;89.39;103283.47;5076225;28;20172;-69
2022/01/11 09:06:21;;;;;;;62.15;20.15;;;;;;;0.62;89.64;103292.09;5079355;28;20016;-70
2022/01/11 09:08:47;;;;;;;72.47;20.02;;;;;;;0.62;89.94;103296.28;5071412;28;20424;-69
2022/01/11 09:11:12;;;;;;;58.95;20.52;;;;;;;0.64;90.33;103295.69;5077771;28;20162;-70
2022/01/11 09:13:37;;;;;;;61.78;18.83;;;;;;;0.68;90.20;103299.47;5074210;28;20060;-69
2022/01/11 09:16:04;;;;;;;58.38;19.63;;;;;;;0.75;89.21;103298.47;5068750;28;20361;-70
2022/01/11 09:18:30;;;;;;;60.20;20.02;;;;;;;0.78;89.93;103302.28;5086298;28;20285;-69
2022/01/11 09:21:00;;;;;;;56.33;18.30;;;;;;;0.83;89.93;103305.31;5078896;28;20043;-69
2022/01/11 09:23:25;;;;;;;64.70;19.98;;;;;;;0.83;89.33;103301.06;5072027;28;20076;-69
2022/01/11 09:25:50;;;;;;;61.63;20.05;;;;;;;0.82;88.73;103300.91;5093342;28;20020;-69
2022/01/11 09:28:16;;;;;;;53.80;19.15;;;;;;;0.81;89.49;103296.53;5074327;28;20298;-69
2022/01/11 09:30:42;;;;;;;56.40;18.58;;;;;;;0.80;88.90;103300.75;5091689;28;20028;-69
2022/01/11 09:33:08;;;;;;;57.60;19.23;;;;;;;0.81;89.23;103301.66;5090674;28;20019;-69
2022/01/11 09:35:33;;;;;;;53.80;18.90;;;;;;;0.78;88.21;103304.84;5097998;28;20314;-69
2022/01/11 09:37:58;;;;;;;60.10;18.77;;;;;;;0.80;88.62;103305.88;5089647;28;20263;-69
2022/01/11 09:40:24;;;;;;;62.53;20.08;;;;;;;0.83;89.52;103311.34;5069205;28;20013;-70
2022/01/11 09:42:49;;;;;;;56.92;19.73;;;;;;;0.88;89.65;103308.34;5092935;28;20078;-69
2022/01/11 09:45:15;;;;;;;55.80;19.83;;;;;;;0.89;88.19;103310.16;5087379;28;20317;-69
2022/01/11 09:47:41;;;;;;;59.47;19.08;;;;;;;0.92;88.55;103315.59;5090964;28;20031;-69
2022/01/11 09:50:09;;;;;;;60.47;20.08;;;;;;;0.94;88.57;103311.53;5076348;28;20036;-69
2022/01/11 09:52:36;;;;;;;62.03;19.07;;;;;;;0.97;88.23;103319.53;5079565;28;20039;-69
2022/01/11 09:55:03;;;;;;;60.50;20.48;;;;;;;1.01;89.05;103321.66;5085161;28;20016;-69
2022/01/11 09:57:29;;;;;;;60.00;20.17;;;;;;;1.02;87.76;103324.38;5096532;28;20026;-69
2022/01/11 09:59:54;;;;;;;56.92;20.92;;;;;;;1.06;87.65;103327.28;5094497;28;20020;-69
2022/01/11 10:02:19;;;;;;;56.60;19.55;;;;;;;1.07;88.16;103327.41;5093983;28;20047;-69
2022/01/11 10:04:45;;;;;;;59.08;19.77;;;;;;;1.12;89.05;103339.09;5099563;28;20031;-69
2022/01/11 10:07:11;;;;;;;61.88;19.65;;;;;;;1.15;88.46;103334.25;5095839;28;20041;-69
2022/01/11 10:09:48;;;;;;;54.95;19.05;;;;;;;1.20;87.55;103337.28;5094110;28;20040;-69
2022/01/11 10:12:14;;;;;;;56.13;18.40;;;;;;;1.22;87.57;103328.09;5092039;28;20280;-69
2022/01/11 10:14:47;;;;;;;52.03;18.25;;;;;;;1.25;87.80;103332.66;5107295;28;20024;-69
2022/01/11 10:17:23;;;;;;;50.47;19.40;;;;;;;1.28;88.09;103330.38;5079743;28;20042;-78
2022/01/11 10:19:51;;;;;;;50.13;18.83;;;;;;;1.30;88.50;103328.88;5079680;28;20088;-69
2022/01/11 10:22:22;;;;;;;52.63;17.92;;;;;;;1.32;87.02;103332.53;5092837;28;20033;-69
2022/01/11 10:24:51;;;;;;;51.35;18.48;;;;;;;1.35;87.54;103330.25;5089597;28;20037;-69
2022/01/11 10:27:29;;;;;;;54.00;17.48;;;;;;;1.37;86.94;103332.19;5088246;28;20083;-69
2022/01/11 10:30:09;;;;;;;75.40;24.23;;;;;;;1.41;86.89;103315.44;5096419;28;20016;-69
2022/01/11 10:32:37;;;;;;;66.72;22.60;;;;;;;1.45;87.69;103316.66;5096571;28;20301;-69
2022/01/11 10:35:19;;;;;;;168.77;47.78;;;;;;;1.48;87.15;103323.03;5094862;28;20080;-69
2022/01/11 10:37:48;;;;;;;67.68;25.42;;;;;;;1.50;86.79;103321.50;5084186;28;20073;-69
2022/01/11 10:40:22;;;;;;;129.07;61.78;;;;;;;1.54;86.64;103320.16;5095702;28;20043;-69
2022/01/11 10:42:49;;;;;;;48.15;22.27;;;;;;;1.57;86.31;103323.03;5099323;28;20270;-69
2022/01/11 10:45:27;;;;;;;52.03;22.20;;;;;;;1.61;86.27;103319.09;5098672;28;20178;-69
2022/01/11 10:47:55;;;;;;;64.10;24.08;;;;;;;1.63;86.55;103315.94;5097529;28;20059;-69
2022/01/11 10:50:30;;;;;;;45.42;18.55;;;;;;;1.67;86.63;103325.78;5090276;28;20095;-69
2022/01/11 10:52:57;;;;;;;51.80;20.10;;;;;;;1.70;86.13;103331.22;5106619;28;20032;-70
2022/01/11 10:55:24;;;;;;;53.75;20.98;;;;;;;1.72;85.86;103334.84;5103290;28;20019;-69
2022/01/11 10:57:53;;;;;;;47.20;18.10;;;;;;;1.77;86.82;103337.88;5105303;28;20145;-70
2022/01/11 11:00:25;;;;;;;37.88;16.30;;;;;;;1.80;86.65;103332.16;5106061;28;20026;-70
2022/01/11 11:02:58;;;;;;;43.63;17.02;;;;;;;1.83;86.78;103323.06;5066412;28;20035;-69
2022/01/11 11:05:28;;;;;;;50.67;18.00;;;;;;;1.86;87.18;103318.22;5075519;28;20039;-69
2022/01/11 11:07:58;;;;;;;48.55;18.58;;;;;;;1.91;87.03;103316.09;5065611;28;20036;-69
2022/01/11 11:10:55;;;;;;;44.10;17.92;;;;;;;1.95;86.77;103323.34;5070386;28;20020;-69